createdAt,value
2022-09-01T00:00:39.394Z,29.32
2022-09-01T00:03:08.782Z,20.12
2022-09-01T00:05:37.888Z,24.72
2022-09-01T00:08:07.200Z,19.82
2022-09-01T00:10:52.509Z,24.35
2022-09-01T00:13:22.991Z,25.20
2022-09-01T00:15:51.784Z,20.68
2022-09-01T00:18:21.012Z,29.18
2022-09-01T00:20:49.987Z,23.67
2022-09-01T00:23:20.189Z,21.97
2022-09-01T00:25:59.691Z,20.62
2022-09-01T00:28:30.298Z,18.55
2022-09-01T00:30:59.453Z,25.37
2022-09-01T00:33:30.501Z,23.65
2022-09-01T00:35:59.917Z,22.05
2022-09-01T00:38:31.640Z,23.32
2022-09-01T00:41:02.033Z,18.48
2022-09-01T00:43:44.608Z,22.00
2022-09-01T00:46:20.384Z,18.98
2022-09-01T00:48:59.711Z,18.23
2022-09-01T00:51:30.150Z,19.62
2022-09-01T00:54:04.045Z,20.50
2022-09-01T00:56:34.954Z,21.15
2022-09-01T00:59:06.138Z,19.00
2022-09-01T01:01:38.586Z,23.07
2022-09-01T01:04:18.685Z,21.23
2022-09-01T01:06:52.501Z,19.80
2022-09-01T01:09:23.206Z,20.62
2022-09-01T01:11:52.303Z,20.57
2022-09-01T01:14:21.113Z,20.88
2022-09-01T01:16:52.247Z,24.82
2022-09-01T01:19:50.945Z,17.73
2022-09-01T01:22:40.398Z,23.45
2022-09-01T01:25:09.148Z,25.43
2022-09-01T01:27:43.188Z,22.73
2022-09-01T01:30:11.215Z,21.35
2022-09-01T01:32:42.422Z,23.70
2022-09-01T01:35:15.916Z,18.25
2022-09-01T01:37:47.957Z,23.22
2022-09-01T01:40:20.045Z,21.10
2022-09-01T01:42:52.085Z,27.48
2022-09-01T01:45:23.445Z,26.75
2022-09-01T01:47:54.123Z,21.70
2022-09-01T01:50:26.394Z,25.50
2022-09-01T01:52:58.576Z,21.85
2022-09-01T01:55:31.084Z,29.20
2022-09-01T01:58:02.033Z,20.77
2022-09-01T02:00:34.301Z,19.32
2022-09-01T02:03:03.359Z,21.15
2022-09-01T02:05:34.670Z,18.95
2022-09-01T02:08:06.258Z,22.13
2022-09-01T02:10:44.365Z,20.60
2022-09-01T02:13:19.565Z,22.27
2022-09-01T02:15:55.744Z,25.72
2022-09-01T02:18:30.813Z,26.65
2022-09-01T02:21:01.023Z,26.17
2022-09-01T02:23:30.043Z,29.82
2022-09-01T02:26:16.040Z,23.57
2022-09-01T02:28:36.947Z,20.97
2022-09-01T02:31:08.496Z,23.35
2022-09-01T02:33:39.766Z,20.90
2022-09-01T02:36:16.895Z,21.12
2022-09-01T02:38:53.341Z,24.15
2022-09-01T02:41:21.800Z,25.88
2022-09-01T02:43:51.049Z,27.30
2022-09-01T02:46:24.555Z,24.52
2022-09-01T02:49:02.381Z,23.07
2022-09-01T02:51:34.368Z,21.97
2022-09-01T02:54:04.619Z,22.32
2022-09-01T02:56:34.698Z,20.52
2022-09-01T02:59:06.304Z,20.60
2022-09-01T03:01:36.645Z,22.22
2022-09-01T03:04:09.127Z,24.37
2022-09-01T03:06:39.187Z,30.17
2022-09-01T03:09:20.139Z,21.57
2022-09-01T03:11:51.014Z,23.70
2022-09-01T03:14:24.027Z,24.98
2022-09-01T03:16:53.481Z,28.35
2022-09-01T03:19:29.496Z,22.22
2022-09-01T03:22:01.033Z,23.95
2022-09-01T03:24:29.716Z,22.90
2022-09-01T03:26:58.422Z,33.53
2022-09-01T03:29:27.119Z,20.60
2022-09-01T03:31:58.717Z,21.90
2022-09-01T03:34:28.097Z,25.88
2022-09-01T03:36:56.808Z,29.37
2022-09-01T03:39:27.118Z,37.30
2022-09-01T03:41:57.551Z,33.73
2022-09-01T03:44:29.493Z,33.73
2022-09-01T03:46:59.924Z,44.88
2022-09-01T03:49:38.084Z,45.63
2022-09-01T03:52:33.635Z,47.15
2022-09-01T03:55:04.127Z,52.08
2022-09-01T03:57:37.661Z,49.58
2022-09-01T04:00:09.638Z,52.17
2022-09-01T04:02:38.981Z,56.45
2022-09-01T04:05:12.377Z,67.87
2022-09-01T04:07:46.356Z,63.95
2022-09-01T04:10:15.763Z,65.83
2022-09-01T04:12:45.074Z,70.35
2022-09-01T04:15:15.462Z,66.53
2022-09-01T04:18:03.374Z,81.53
2022-09-01T04:20:34.746Z,59.58
2022-09-01T04:23:05.115Z,64.27
2022-09-01T04:25:36.823Z,59.48
2022-09-01T04:28:07.679Z,58.25
2022-09-01T04:30:38.198Z,53.68
2022-09-01T04:33:08.482Z,60.12
2022-09-01T04:35:41.182Z,53.10
2022-09-01T04:38:09.879Z,55.40
2022-09-01T04:40:42.066Z,53.90
2022-09-01T04:43:11.505Z,43.15
2022-09-01T04:45:41.055Z,46.30
2022-09-01T04:48:10.074Z,41.92
2022-09-01T04:50:41.406Z,46.08
2022-09-01T04:53:12.124Z,38.30
2022-09-01T04:55:46.159Z,37.28
2022-09-01T04:58:18.734Z,38.88
2022-09-01T05:00:52.559Z,37.20
2022-09-01T05:03:23.098Z,38.60
2022-09-01T05:05:54.306Z,39.85
2022-09-01T05:08:24.918Z,35.88
2022-09-01T05:10:57.962Z,37.33
2022-09-01T05:13:30.273Z,33.83
2022-09-01T05:16:12.477Z,38.65
2022-09-01T05:18:47.739Z,38.28
2022-09-01T05:21:19.980Z,34.60
2022-09-01T05:23:51.541Z,34.13
2022-09-01T05:26:23.768Z,33.13
2022-09-01T05:28:55.410Z,35.13
2022-09-01T05:31:29.701Z,41.95
2022-09-01T05:34:01.670Z,40.65
2022-09-01T05:36:36.502Z,130.35
2022-09-01T05:39:07.818Z,48.63
2022-09-01T05:44:42.453Z,39.70
2022-09-01T05:47:22.853Z,39.27
2022-09-01T05:49:57.796Z,41.70
2022-09-01T05:58:04.053Z,51.05
2022-09-01T06:00:36.541Z,51.00
2022-09-01T06:06:25.446Z,60.67
2022-09-01T06:09:00.550Z,53.42
2022-09-01T06:11:35.593Z,57.35
2022-09-01T06:14:13.818Z,60.10
2022-09-01T06:16:44.726Z,50.65
2022-09-01T06:19:18.549Z,56.65
2022-09-01T06:22:04.018Z,54.95
2022-09-01T06:24:39.283Z,50.35
2022-09-01T06:27:10.289Z,61.80
2022-09-01T06:29:41.920Z,60.88
2022-09-01T06:32:12.703Z,54.40
2022-09-01T06:34:44.678Z,59.90
2022-09-01T06:37:15.545Z,60.23
2022-09-01T06:39:44.271Z,54.25
2022-09-01T06:42:15.169Z,52.48
2022-09-01T06:44:44.261Z,55.78
2022-09-01T06:47:15.774Z,49.93
2022-09-01T06:49:46.175Z,44.48
2022-09-01T06:52:16.221Z,41.73
2022-09-01T06:54:46.791Z,46.28
2022-09-01T07:00:00.340Z,49.83
2022-09-01T07:02:33.832Z,47.03
2022-09-01T07:05:02.885Z,52.27
2022-09-01T07:10:21.384Z,41.90
2022-09-01T07:12:35.270Z,48.52
2022-09-01T07:17:40.341Z,41.15
2022-09-01T07:20:27.177Z,63.92
2022-09-01T07:25:16.710Z,51.15
2022-09-01T07:27:48.443Z,47.20
2022-09-01T07:30:20.955Z,46.23
2022-09-01T07:32:55.231Z,43.28
2022-09-01T07:35:25.592Z,51.37
2022-09-01T07:45:30.896Z,52.85
2022-09-01T07:48:03.946Z,47.67
2022-09-01T07:51:07.668Z,50.00
2022-09-01T07:53:09.455Z,65.78
2022-09-01T07:55:43.941Z,54.18
2022-09-01T07:58:16.189Z,46.60
2022-09-01T08:00:46.778Z,52.85
2022-09-01T08:03:21.631Z,51.85
2022-09-01T08:05:52.857Z,61.80
2022-09-01T08:08:27.787Z,59.23
2022-09-01T08:10:54.595Z,50.25
2022-09-01T08:13:28.912Z,50.75
2022-09-01T08:16:07.187Z,46.75
2022-09-01T08:18:48.146Z,57.13
2022-09-01T08:21:08.490Z,46.60
2022-09-01T08:23:39.235Z,46.73
2022-09-01T08:26:16.069Z,44.33
2022-09-01T08:28:54.952Z,43.90
2022-09-01T08:31:21.060Z,49.03
2022-09-01T08:33:51.589Z,53.42
2022-09-01T08:36:26.697Z,47.78
2022-09-01T08:38:57.965Z,39.92
2022-09-01T08:41:47.479Z,41.70
2022-09-01T08:44:22.747Z,43.73
2022-09-01T08:47:00.827Z,42.53
2022-09-01T08:49:42.712Z,43.83
2022-09-01T08:52:25.643Z,42.30
2022-09-01T08:55:00.790Z,38.17
2022-09-01T08:57:36.882Z,40.45
2022-09-01T09:00:12.755Z,35.70
2022-09-01T09:02:53.544Z,35.38
2022-09-01T09:05:47.747Z,41.68
2022-09-01T09:08:54.541Z,28.50
2022-09-01T09:11:54.251Z,30.57
2022-09-01T09:14:32.996Z,30.90
2022-09-01T09:17:02.640Z,31.07
2022-09-01T09:19:36.247Z,34.85
2022-09-01T09:22:11.497Z,28.20
2022-09-01T09:25:04.361Z,31.95
2022-09-01T09:27:37.941Z,29.72
2022-09-01T09:30:18.189Z,34.00
2022-09-01T09:35:27.038Z,28.00
2022-09-01T09:41:32.410Z,27.60
2022-09-01T09:47:21.902Z,23.07
2022-09-01T09:49:42.209Z,35.28
2022-09-01T09:52:19.074Z,26.42
2022-09-01T09:55:13.441Z,32.53
2022-09-01T09:57:44.296Z,25.97
2022-09-01T10:00:35.295Z,18.98
2022-09-01T10:03:10.879Z,19.62
2022-09-01T10:05:54.409Z,22.15
2022-09-01T10:08:34.345Z,19.82
2022-09-01T10:11:05.462Z,30.97
2022-09-01T10:13:37.749Z,22.22
2022-09-01T10:16:22.007Z,20.08
2022-09-01T10:18:51.382Z,17.62
2022-09-01T10:21:30.406Z,21.40
2022-09-01T10:24:21.215Z,18.50
2022-09-01T10:26:40.279Z,14.20
2022-09-01T10:29:26.688Z,18.57
2022-09-01T10:32:31.236Z,16.10
2022-09-01T10:34:31.195Z,19.50
2022-09-01T10:37:01.314Z,20.30
2022-09-01T10:39:31.091Z,15.43
2022-09-01T10:42:03.498Z,17.02
2022-09-01T10:44:39.052Z,15.13
2022-09-01T10:47:33.851Z,15.20
2022-09-01T10:50:09.906Z,14.58
2022-09-01T10:52:51.235Z,19.82
2022-09-01T10:56:28.228Z,14.50
2022-09-01T11:01:49.837Z,17.48
2022-09-01T11:04:23.426Z,18.17
2022-09-01T11:07:12.761Z,14.68
2022-09-01T11:09:41.884Z,14.98
2022-09-01T11:12:29.998Z,15.23
2022-09-01T11:14:59.013Z,15.78
2022-09-01T11:17:43.342Z,19.45
2022-09-01T11:20:29.890Z,18.35
2022-09-01T11:23:08.497Z,14.60
2022-09-01T11:25:41.912Z,17.85
2022-09-01T11:28:14.829Z,20.57
2022-09-01T11:31:00.630Z,15.03
2022-09-01T11:33:58.457Z,16.95
2022-09-01T11:37:02.941Z,22.17
2022-09-01T11:39:38.421Z,15.88
2022-09-01T11:42:22.212Z,19.95
2022-09-01T11:45:20.714Z,16.45
2022-09-01T11:47:52.955Z,15.58
2022-09-01T11:50:32.198Z,17.02
2022-09-01T11:53:06.719Z,16.25
2022-09-01T11:55:41.176Z,15.70
2022-09-01T11:58:17.916Z,16.27
2022-09-01T12:00:47.676Z,14.98
2022-09-01T12:03:25.867Z,20.50
2022-09-01T12:06:04.245Z,9.93
2022-09-01T12:08:42.098Z,12.95
2022-09-01T12:11:13.575Z,13.68
2022-09-01T12:13:44.743Z,14.70
2022-09-01T12:16:18.968Z,12.53
2022-09-01T12:18:54.277Z,14.95
2022-09-01T12:21:29.169Z,20.08
2022-09-01T12:24:17.676Z,15.35
2022-09-01T12:26:52.509Z,14.13
2022-09-01T12:29:21.589Z,15.95
2022-09-01T12:31:52.718Z,16.32
2022-09-01T12:34:35.996Z,23.35
2022-09-01T12:37:10.327Z,21.57
2022-09-01T12:39:46.128Z,15.65
2022-09-01T12:42:25.197Z,17.00
2022-09-01T12:44:57.484Z,18.48
2022-09-01T12:47:40.715Z,31.97
2022-09-01T12:50:18.062Z,20.50
2022-09-01T12:52:52.838Z,21.65
2022-09-01T12:57:57.915Z,16.10
2022-09-01T13:00:30.405Z,23.45
2022-09-01T13:03:05.537Z,19.98
2022-09-01T13:05:42.473Z,15.78
2022-09-01T13:08:13.349Z,18.45
2022-09-01T13:10:51.748Z,16.65
2022-09-01T13:13:27.113Z,16.55
2022-09-01T13:16:00.218Z,14.63
2022-09-01T13:18:30.403Z,13.62
2022-09-01T13:20:59.583Z,23.12
2022-09-01T13:23:28.516Z,12.85
2022-09-01T13:25:59.191Z,20.10
2022-09-01T13:28:29.665Z,15.78
2022-09-01T13:38:40.665Z,19.57
2022-09-01T13:41:11.665Z,20.90
2022-09-01T13:43:40.543Z,21.40
2022-09-01T13:46:09.681Z,15.80
2022-09-01T13:51:14.904Z,14.70
2022-09-01T13:53:40.334Z,24.47
2022-09-01T13:56:08.990Z,23.77
2022-09-01T13:58:37.794Z,22.05
2022-09-01T14:01:07.322Z,17.90
2022-09-01T14:03:37.808Z,17.90
2022-09-01T14:06:07.941Z,17.10
2022-09-01T14:08:36.826Z,18.82
2022-09-01T14:11:09.753Z,19.15
2022-09-01T14:13:38.672Z,15.13
2022-09-01T14:16:12.669Z,12.20
2022-09-01T14:18:41.772Z,16.93
2022-09-01T14:21:16.007Z,13.70
2022-09-01T14:23:46.263Z,15.08
2022-09-01T14:26:17.409Z,18.87
2022-09-01T14:28:48.544Z,15.83
2022-09-01T14:31:19.592Z,12.80
2022-09-01T14:33:49.215Z,17.75
2022-09-01T14:36:21.281Z,15.30
2022-09-01T14:38:53.864Z,16.75
2022-09-01T14:41:26.434Z,18.45
2022-09-01T14:44:02.826Z,16.48
2022-09-01T14:46:30.484Z,19.25
2022-09-01T14:49:01.703Z,24.32
2022-09-01T14:54:04.476Z,16.77
2022-09-01T14:56:33.231Z,16.25
2022-09-01T14:59:02.372Z,17.82
2022-09-01T15:01:34.582Z,18.85
2022-09-01T15:04:02.466Z,20.40
2022-09-01T15:06:31.897Z,16.10
2022-09-01T15:09:00.661Z,16.02
2022-09-01T15:11:29.310Z,19.07
2022-09-01T15:14:01.022Z,27.42
2022-09-01T15:16:31.215Z,20.37
2022-09-01T15:19:00.396Z,22.32
2022-09-01T15:21:33.245Z,14.95
2022-09-01T15:24:05.037Z,14.55
2022-09-01T15:26:34.471Z,15.72
2022-09-01T15:29:03.376Z,18.32
2022-09-01T15:31:33.932Z,18.92
2022-09-01T15:34:04.540Z,14.78
2022-09-01T15:36:37.141Z,16.45
2022-09-01T15:39:06.705Z,18.48
2022-09-01T15:41:37.470Z,21.62
2022-09-01T15:44:14.129Z,18.60
2022-09-01T15:46:43.650Z,18.73
2022-09-01T15:49:24.030Z,18.40
2022-09-01T15:52:13.835Z,18.50
2022-09-01T15:55:12.574Z,20.95
2022-09-01T16:01:45.988Z,16.90
2022-09-01T16:03:38.594Z,24.60
2022-09-01T16:06:08.274Z,18.42
2022-09-01T16:08:38.150Z,20.12
2022-09-01T16:11:57.036Z,19.17
2022-09-01T16:14:25.535Z,23.47
2022-09-01T16:17:12.486Z,16.93
2022-09-01T16:19:56.221Z,17.73
2022-09-01T16:22:38.427Z,16.70
2022-09-01T16:25:13.197Z,13.08
2022-09-01T16:27:46.440Z,15.05
2022-09-01T16:30:24.350Z,16.42
2022-09-01T16:32:55.034Z,12.33
2022-09-01T16:35:29.412Z,19.40
2022-09-01T16:38:15.231Z,21.27
2022-09-01T16:40:58.584Z,17.30
2022-09-01T16:43:34.435Z,17.42
2022-09-01T16:46:14.920Z,20.37
2022-09-01T16:49:12.524Z,20.70
2022-09-01T16:52:22.574Z,24.65
2022-09-01T16:55:44.356Z,21.87
2022-09-01T17:05:31.711Z,21.40
2022-09-01T17:09:00.147Z,24.80
2022-09-01T17:14:56.476Z,21.60
2022-09-01T17:20:50.402Z,20.80
2022-09-01T17:23:43.349Z,23.40
2022-09-01T17:26:17.791Z,21.60
2022-09-01T17:29:02.306Z,30.08
2022-09-01T17:35:37.009Z,28.10
2022-09-01T17:38:28.729Z,20.30
2022-09-01T17:41:14.630Z,23.67
2022-09-01T17:51:14.533Z,30.23
2022-09-01T17:57:30.106Z,23.45
2022-09-01T18:04:11.707Z,26.75
2022-09-01T18:06:43.772Z,18.48
2022-09-01T18:09:16.149Z,21.42
2022-09-01T18:11:53.350Z,26.15
2022-09-01T18:14:25.193Z,25.23
2022-09-01T18:17:05.737Z,18.45
2022-09-01T18:19:44.820Z,21.62
2022-09-01T18:22:16.777Z,19.70
2022-09-01T18:25:08.799Z,18.60
2022-09-01T18:27:42.917Z,27.48
2022-09-01T18:30:52.078Z,23.87
2022-09-01T18:33:30.213Z,19.65
2022-09-01T18:45:23.916Z,22.77
2022-09-01T19:09:39.854Z,26.15
2022-09-01T19:20:11.275Z,20.12
2022-09-01T19:32:27.973Z,27.25
2022-09-01T19:35:02.601Z,22.37
2022-09-01T19:46:51.675Z,19.90
2022-09-01T19:49:40.068Z,19.75
2022-09-01T19:58:20.974Z,20.37
2022-09-01T20:00:56.258Z,26.23
2022-09-01T20:03:45.825Z,27.77
2022-09-01T20:06:23.534Z,24.43
2022-09-01T20:09:10.228Z,21.80
2022-09-01T20:12:04.529Z,22.67
2022-09-01T20:14:52.894Z,20.23
2022-09-01T20:17:41.432Z,21.45
2022-09-01T20:26:44.284Z,22.60
2022-09-01T20:29:35.068Z,21.70
2022-09-01T20:32:06.451Z,23.15
2022-09-01T20:34:54.806Z,22.48
2022-09-01T20:47:11.613Z,20.52
2022-09-01T20:49:41.617Z,27.65
2022-09-01T21:02:46.970Z,22.65
2022-09-01T21:12:05.986Z,19.07
2022-09-01T21:15:05.746Z,23.45
2022-09-01T21:17:37.729Z,20.25
2022-09-01T21:20:29.983Z,25.12
2022-09-01T21:22:59.481Z,19.52
2022-09-01T21:25:29.664Z,19.40
2022-09-01T21:28:04.014Z,21.87
2022-09-01T21:30:41.837Z,16.80
2022-09-01T21:33:06.245Z,21.40
2022-09-01T21:38:25.636Z,21.73
2022-09-01T21:40:56.332Z,20.15
